sensor_id;sensor_type;location;lat;lon;timestamp;P1;durP1;ratioP1;P2;durP2;ratioP2
10851;SDS011;5479;52.046;6.314;2023-06-22T00:00:27;13.43;;;10.27;;
10851;SDS011;5479;52.046;6.314;2023-06-22T00:02:54;11.27;;;10.05;;
10851;SDS011;5479;52.046;6.314;2023-06-22T00:05:22;12.47;;;9.60;;
10851;SDS011;5479;52.046;6.314;2023-06-22T00:07:50;11.53;;;9.73;;
10851;SDS011;5479;52.046;6.314;2023-06-22T00:10:18;11.13;;;9.83;;
10851;SDS011;5479;52.046;6.314;2023-06-22T00:12:46;12.98;;;9.70;;
10851;SDS011;5479;52.046;6.314;2023-06-22T00:15:14;12.23;;;9.80;;
10851;SDS011;5479;52.046;6.314;2023-06-22T00:17:45;10.70;;;9.60;;
10851;SDS011;5479;52.046;6.314;2023-06-22T00:20:12;11.67;;;9.77;;
10851;SDS011;5479;52.046;6.314;2023-06-22T00:22:42;11.63;;;10.43;;
10851;SDS011;5479;52.046;6.314;2023-06-22T00:25:10;11.67;;;10.00;;
10851;SDS011;5479;52.046;6.314;2023-06-22T00:27:39;10.93;;;9.83;;
10851;SDS011;5479;52.046;6.314;2023-06-22T00:30:07;11.27;;;9.87;;
10851;SDS011;5479;52.046;6.314;2023-06-22T00:32:36;10.60;;;9.50;;
10851;SDS011;5479;52.046;6.314;2023-06-22T00:35:05;11.48;;;9.35;;
10851;SDS011;5479;52.046;6.314;2023-06-22T00:37:35;10.57;;;9.47;;
10851;SDS011;5479;52.046;6.314;2023-06-22T00:40:03;12.40;;;9.93;;
10851;SDS011;5479;52.046;6.314;2023-06-22T00:42:31;11.63;;;9.80;;
10851;SDS011;5479;52.046;6.314;2023-06-22T00:44:59;10.80;;;9.27;;
10851;SDS011;5479;52.046;6.314;2023-06-22T00:47:27;10.93;;;9.33;;
10851;SDS011;5479;52.046;6.314;2023-06-22T00:49:55;12.55;;;9.90;;
10851;SDS011;5479;52.046;6.314;2023-06-22T00:52:27;10.93;;;9.40;;
10851;SDS011;5479;52.046;6.314;2023-06-22T00:54:57;11.27;;;9.80;;
10851;SDS011;5479;52.046;6.314;2023-06-22T00:57:28;10.83;;;9.37;;
10851;SDS011;5479;52.046;6.314;2023-06-22T00:59:56;12.00;;;10.07;;
10851;SDS011;5479;52.046;6.314;2023-06-22T01:02:24;12.97;;;10.10;;
10851;SDS011;5479;52.046;6.314;2023-06-22T01:04:52;12.83;;;10.43;;
10851;SDS011;5479;52.046;6.314;2023-06-22T01:07:23;12.20;;;10.70;;
10851;SDS011;5479;52.046;6.314;2023-06-22T01:09:59;11.27;;;9.93;;
10851;SDS011;5479;52.046;6.314;2023-06-22T01:12:34;12.30;;;11.00;;
10851;SDS011;5479;52.046;6.314;2023-06-22T01:15:08;13.37;;;11.40;;
10851;SDS011;5479;52.046;6.314;2023-06-22T01:17:39;13.27;;;11.87;;
10851;SDS011;5479;52.046;6.314;2023-06-22T01:20:10;13.43;;;12.07;;
10851;SDS011;5479;52.046;6.314;2023-06-22T01:22:45;14.43;;;12.57;;
10851;SDS011;5479;52.046;6.314;2023-06-22T01:25:28;12.63;;;11.37;;
10851;SDS011;5479;52.046;6.314;2023-06-22T01:28:05;12.63;;;11.30;;
10851;SDS011;5479;52.046;6.314;2023-06-22T01:30:47;12.83;;;11.47;;
10851;SDS011;5479;52.046;6.314;2023-06-22T01:33:27;13.00;;;11.43;;
10851;SDS011;5479;52.046;6.314;2023-06-22T01:35:55;12.17;;;10.83;;
10851;SDS011;5479;52.046;6.314;2023-06-22T01:38:23;12.30;;;11.00;;
10851;SDS011;5479;52.046;6.314;2023-06-22T01:40:52;10.90;;;9.77;;
10851;SDS011;5479;52.046;6.314;2023-06-22T01:43:21;12.67;;;11.37;;
10851;SDS011;5479;52.046;6.314;2023-06-22T01:45:52;12.33;;;10.57;;
10851;SDS011;5479;52.046;6.314;2023-06-22T01:48:21;11.10;;;9.60;;
10851;SDS011;5479;52.046;6.314;2023-06-22T01:50:50;13.23;;;10.70;;
10851;SDS011;5479;52.046;6.314;2023-06-22T01:53:20;13.47;;;10.40;;
10851;SDS011;5479;52.046;6.314;2023-06-22T01:55:48;12.27;;;10.73;;
10851;SDS011;5479;52.046;6.314;2023-06-22T01:58:16;12.73;;;10.77;;
10851;SDS011;5479;52.046;6.314;2023-06-22T02:00:46;11.80;;;10.60;;
10851;SDS011;5479;52.046;6.314;2023-06-22T02:03:22;14.00;;;10.73;;
10851;SDS011;5479;52.046;6.314;2023-06-22T02:05:54;12.53;;;11.17;;
10851;SDS011;5479;52.046;6.314;2023-06-22T02:08:29;13.83;;;12.27;;
10851;SDS011;5479;52.046;6.314;2023-06-22T02:10:59;13.87;;;11.67;;
10851;SDS011;5479;52.046;6.314;2023-06-22T02:13:29;13.37;;;11.97;;
10851;SDS011;5479;52.046;6.314;2023-06-22T02:15:59;13.73;;;12.33;;
10851;SDS011;5479;52.046;6.314;2023-06-22T02:18:29;13.57;;;12.17;;
10851;SDS011;5479;52.046;6.314;2023-06-22T02:20:57;14.40;;;12.93;;
10851;SDS011;5479;52.046;6.314;2023-06-22T02:23:25;14.27;;;12.77;;
10851;SDS011;5479;52.046;6.314;2023-06-22T02:25:55;15.80;;;12.87;;
10851;SDS011;5479;52.046;6.314;2023-06-22T02:28:22;14.87;;;13.10;;
10851;SDS011;5479;52.046;6.314;2023-06-22T02:30:50;14.97;;;13.33;;
10851;SDS011;5479;52.046;6.314;2023-06-22T02:33:18;14.67;;;13.20;;
10851;SDS011;5479;52.046;6.314;2023-06-22T02:35:48;15.27;;;13.77;;
10851;SDS011;5479;52.046;6.314;2023-06-22T02:38:16;17.87;;;14.17;;
10851;SDS011;5479;52.046;6.314;2023-06-22T02:40:45;15.77;;;13.50;;
10851;SDS011;5479;52.046;6.314;2023-06-22T02:43:13;15.60;;;14.00;;
10851;SDS011;5479;52.046;6.314;2023-06-22T02:45:41;15.80;;;14.20;;
10851;SDS011;5479;52.046;6.314;2023-06-22T02:48:09;15.23;;;13.70;;
10851;SDS011;5479;52.046;6.314;2023-06-22T02:50:37;15.43;;;13.87;;
10851;SDS011;5479;52.046;6.314;2023-06-22T02:53:09;16.33;;;14.70;;
10851;SDS011;5479;52.046;6.314;2023-06-22T02:55:37;17.17;;;15.07;;
10851;SDS011;5479;52.046;6.314;2023-06-22T02:58:06;18.13;;;16.23;;
10851;SDS011;5479;52.046;6.314;2023-06-22T03:00:35;18.97;;;15.07;;
10851;SDS011;5479;52.046;6.314;2023-06-22T03:03:03;18.23;;;16.33;;
10851;SDS011;5479;52.046;6.314;2023-06-22T03:05:30;17.33;;;15.63;;
10851;SDS011;5479;52.046;6.314;2023-06-22T03:07:59;19.00;;;17.10;;
10851;SDS011;5479;52.046;6.314;2023-06-22T03:10:28;18.87;;;16.83;;
10851;SDS011;5479;52.046;6.314;2023-06-22T03:12:56;19.37;;;17.33;;
10851;SDS011;5479;52.046;6.314;2023-06-22T03:15:25;20.13;;;18.13;;
10851;SDS011;5479;52.046;6.314;2023-06-22T03:17:55;18.93;;;17.13;;
10851;SDS011;5479;52.046;6.314;2023-06-22T03:20:23;20.70;;;18.63;;
10851;SDS011;5479;52.046;6.314;2023-06-22T03:22:53;20.67;;;18.57;;
10851;SDS011;5479;52.046;6.314;2023-06-22T03:25:21;21.50;;;19.30;;
10851;SDS011;5479;52.046;6.314;2023-06-22T03:27:49;20.57;;;18.47;;
10851;SDS011;5479;52.046;6.314;2023-06-22T03:30:17;22.83;;;19.90;;
10851;SDS011;5479;52.046;6.314;2023-06-22T03:32:45;22.80;;;20.40;;
10851;SDS011;5479;52.046;6.314;2023-06-22T03:35:14;22.73;;;20.03;;
10851;SDS011;5479;52.046;6.314;2023-06-22T03:37:42;23.37;;;21.03;;
10851;SDS011;5479;52.046;6.314;2023-06-22T03:40:10;24.23;;;21.83;;
10851;SDS011;5479;52.046;6.314;2023-06-22T03:42:39;23.50;;;21.00;;
10851;SDS011;5479;52.046;6.314;2023-06-22T03:45:10;24.73;;;22.07;;
10851;SDS011;5479;52.046;6.314;2023-06-22T03:47:38;25.53;;;22.83;;
10851;SDS011;5479;52.046;6.314;2023-06-22T03:50:06;25.00;;;22.50;;
10851;SDS011;5479;52.046;6.314;2023-06-22T03:52:35;26.23;;;23.43;;
10851;SDS011;5479;52.046;6.314;2023-06-22T03:55:03;26.63;;;23.77;;
10851;SDS011;5479;52.046;6.314;2023-06-22T03:57:31;27.60;;;24.57;;
10851;SDS011;5479;52.046;6.314;2023-06-22T04:00:00;25.77;;;23.17;;
10851;SDS011;5479;52.046;6.314;2023-06-22T04:02:30;28.70;;;25.40;;
10851;SDS011;5479;52.046;6.314;2023-06-22T04:04:58;28.60;;;25.67;;
10851;SDS011;5479;52.046;6.314;2023-06-22T04:07:26;29.03;;;26.07;;
10851;SDS011;5479;52.046;6.314;2023-06-22T04:09:55;29.03;;;25.93;;
10851;SDS011;5479;52.046;6.314;2023-06-22T04:12:23;28.67;;;25.67;;
10851;SDS011;5479;52.046;6.314;2023-06-22T04:14:51;30.17;;;27.17;;
10851;SDS011;5479;52.046;6.314;2023-06-22T04:17:19;28.27;;;25.37;;
10851;SDS011;5479;52.046;6.314;2023-06-22T04:19:48;30.07;;;26.97;;
10851;SDS011;5479;52.046;6.314;2023-06-22T04:22:16;32.13;;;28.30;;
10851;SDS011;5479;52.046;6.314;2023-06-22T04:24:44;30.30;;;27.03;;
10851;SDS011;5479;52.046;6.314;2023-06-22T04:27:12;30.43;;;27.33;;
10851;SDS011;5479;52.046;6.314;2023-06-22T04:29:41;32.17;;;28.87;;
10851;SDS011;5479;52.046;6.314;2023-06-22T04:32:14;32.00;;;28.83;;
10851;SDS011;5479;52.046;6.314;2023-06-22T04:34:42;31.93;;;28.60;;
10851;SDS011;5479;52.046;6.314;2023-06-22T04:37:12;32.40;;;29.20;;
10851;SDS011;5479;52.046;6.314;2023-06-22T04:39:41;29.70;;;26.73;;
10851;SDS011;5479;52.046;6.314;2023-06-22T04:42:11;30.80;;;27.70;;
10851;SDS011;5479;52.046;6.314;2023-06-22T04:44:39;31.47;;;28.33;;
10851;SDS011;5479;52.046;6.314;2023-06-22T04:47:08;30.83;;;27.83;;
10851;SDS011;5479;52.046;6.314;2023-06-22T04:49:36;31.20;;;27.93;;
10851;SDS011;5479;52.046;6.314;2023-06-22T04:52:07;31.73;;;28.37;;
10851;SDS011;5479;52.046;6.314;2023-06-22T04:54:38;31.43;;;28.30;;
10851;SDS011;5479;52.046;6.314;2023-06-22T04:57:14;31.37;;;28.20;;
10851;SDS011;5479;52.046;6.314;2023-06-22T04:59:42;30.70;;;27.80;;
10851;SDS011;5479;52.046;6.314;2023-06-22T05:02:10;31.70;;;28.50;;
10851;SDS011;5479;52.046;6.314;2023-06-22T05:04:39;31.53;;;28.30;;
10851;SDS011;5479;52.046;6.314;2023-06-22T05:07:07;32.47;;;29.17;;
10851;SDS011;5479;52.046;6.314;2023-06-22T05:09:37;31.03;;;28.03;;
10851;SDS011;5479;52.046;6.314;2023-06-22T05:12:07;31.30;;;28.23;;
10851;SDS011;5479;52.046;6.314;2023-06-22T05:14:35;30.33;;;27.37;;
10851;SDS011;5479;52.046;6.314;2023-06-22T05:17:03;30.53;;;27.43;;
10851;SDS011;5479;52.046;6.314;2023-06-22T05:19:40;31.37;;;27.90;;
10851;SDS011;5479;52.046;6.314;2023-06-22T05:22:14;30.35;;;27.45;;
10851;SDS011;5479;52.046;6.314;2023-06-22T05:24:44;29.45;;;26.60;;
10851;SDS011;5479;52.046;6.314;2023-06-22T05:27:12;29.73;;;26.83;;
10851;SDS011;5479;52.046;6.314;2023-06-22T05:29:40;29.25;;;26.30;;
10851;SDS011;5479;52.046;6.314;2023-06-22T05:32:09;29.77;;;26.77;;
10851;SDS011;5479;52.046;6.314;2023-06-22T05:34:37;28.83;;;26.05;;
10851;SDS011;5479;52.046;6.314;2023-06-22T05:37:05;29.07;;;26.17;;
10851;SDS011;5479;52.046;6.314;2023-06-22T05:39:35;29.10;;;26.20;;
10851;SDS011;5479;52.046;6.314;2023-06-22T05:42:06;27.70;;;25.10;;
10851;SDS011;5479;52.046;6.314;2023-06-22T05:44:35;27.88;;;25.20;;
10851;SDS011;5479;52.046;6.314;2023-06-22T05:47:03;27.30;;;24.63;;
10851;SDS011;5479;52.046;6.314;2023-06-22T05:49:31;27.52;;;24.90;;
10851;SDS011;5479;52.046;6.314;2023-06-22T05:51:59;27.45;;;24.85;;
10851;SDS011;5479;52.046;6.314;2023-06-22T05:54:28;28.00;;;25.20;;
10851;SDS011;5479;52.046;6.314;2023-06-22T05:56:56;27.25;;;24.67;;
10851;SDS011;5479;52.046;6.314;2023-06-22T05:59:25;27.05;;;24.38;;
10851;SDS011;5479;52.046;6.314;2023-06-22T06:01:53;27.13;;;24.50;;
10851;SDS011;5479;52.046;6.314;2023-06-22T06:04:21;25.88;;;23.48;;
10851;SDS011;5479;52.046;6.314;2023-06-22T06:06:49;26.38;;;23.90;;
10851;SDS011;5479;52.046;6.314;2023-06-22T06:09:17;26.38;;;23.88;;
10851;SDS011;5479;52.046;6.314;2023-06-22T06:11:46;26.10;;;23.35;;
10851;SDS011;5479;52.046;6.314;2023-06-22T06:14:14;26.75;;;24.15;;
10851;SDS011;5479;52.046;6.314;2023-06-22T06:16:44;25.38;;;22.95;;
10851;SDS011;5479;52.046;6.314;2023-06-22T06:19:12;25.92;;;23.38;;
10851;SDS011;5479;52.046;6.314;2023-06-22T06:21:40;25.55;;;23.02;;
10851;SDS011;5479;52.046;6.314;2023-06-22T06:24:08;26.13;;;23.35;;
10851;SDS011;5479;52.046;6.314;2023-06-22T06:26:36;24.45;;;22.17;;
10851;SDS011;5479;52.046;6.314;2023-06-22T06:29:05;24.90;;;22.60;;
10851;SDS011;5479;52.046;6.314;2023-06-22T06:31:33;24.65;;;22.27;;
10851;SDS011;5479;52.046;6.314;2023-06-22T06:34:02;23.33;;;21.17;;
10851;SDS011;5479;52.046;6.314;2023-06-22T06:36:32;21.98;;;19.98;;
10851;SDS011;5479;52.046;6.314;2023-06-22T06:39:00;23.25;;;21.05;;
10851;SDS011;5479;52.046;6.314;2023-06-22T06:41:29;22.33;;;20.13;;
10851;SDS011;5479;52.046;6.314;2023-06-22T06:43:57;21.52;;;19.52;;
10851;SDS011;5479;52.046;6.314;2023-06-22T06:46:26;20.88;;;18.95;;
10851;SDS011;5479;52.046;6.314;2023-06-22T06:48:54;20.60;;;18.77;;
10851;SDS011;5479;52.046;6.314;2023-06-22T06:51:24;20.98;;;18.98;;
10851;SDS011;5479;52.046;6.314;2023-06-22T06:53:52;20.45;;;18.50;;
10851;SDS011;5479;52.046;6.314;2023-06-22T06:56:20;21.30;;;19.20;;
10851;SDS011;5479;52.046;6.314;2023-06-22T06:58:49;19.08;;;17.30;;
10851;SDS011;5479;52.046;6.314;2023-06-22T07:01:18;21.70;;;19.58;;
10851;SDS011;5479;52.046;6.314;2023-06-22T07:03:46;22.00;;;19.73;;
10851;SDS011;5479;52.046;6.314;2023-06-22T07:06:14;20.95;;;19.02;;
10851;SDS011;5479;52.046;6.314;2023-06-22T07:08:44;21.00;;;18.95;;
10851;SDS011;5479;52.046;6.314;2023-06-22T07:11:12;21.42;;;19.52;;
10851;SDS011;5479;52.046;6.314;2023-06-22T07:13:40;21.00;;;19.10;;
10851;SDS011;5479;52.046;6.314;2023-06-22T07:16:07;20.65;;;18.63;;
10851;SDS011;5479;52.046;6.314;2023-06-22T07:18:35;21.00;;;19.00;;
10851;SDS011;5479;52.046;6.314;2023-06-22T07:21:03;21.63;;;19.50;;
10851;SDS011;5479;52.046;6.314;2023-06-22T07:23:34;22.95;;;20.75;;
10851;SDS011;5479;52.046;6.314;2023-06-22T07:26:04;21.85;;;19.83;;
10851;SDS011;5479;52.046;6.314;2023-06-22T07:28:32;22.00;;;20.00;;
10851;SDS011;5479;52.046;6.314;2023-06-22T07:31:03;22.98;;;20.77;;
10851;SDS011;5479;52.046;6.314;2023-06-22T07:33:31;21.90;;;19.88;;
10851;SDS011;5479;52.046;6.314;2023-06-22T07:35:59;21.55;;;19.50;;
10851;SDS011;5479;52.046;6.314;2023-06-22T07:38:27;22.33;;;20.13;;
10851;SDS011;5479;52.046;6.314;2023-06-22T07:40:55;20.73;;;18.63;;
10851;SDS011;5479;52.046;6.314;2023-06-22T07:43:24;20.70;;;18.73;;
10851;SDS011;5479;52.046;6.314;2023-06-22T07:45:52;22.02;;;19.83;;
10851;SDS011;5479;52.046;6.314;2023-06-22T07:48:21;21.20;;;19.15;;
10851;SDS011;5479;52.046;6.314;2023-06-22T07:50:49;20.38;;;18.50;;
10851;SDS011;5479;52.046;6.314;2023-06-22T07:53:18;21.00;;;19.02;;
10851;SDS011;5479;52.046;6.314;2023-06-22T07:55:47;20.77;;;18.65;;
10851;SDS011;5479;52.046;6.314;2023-06-22T07:58:15;18.08;;;16.38;;
10851;SDS011;5479;52.046;6.314;2023-06-22T08:00:48;19.30;;;17.58;;
10851;SDS011;5479;52.046;6.314;2023-06-22T08:03:16;19.83;;;17.98;;
10851;SDS011;5479;52.046;6.314;2023-06-22T08:05:45;20.98;;;19.02;;
10851;SDS011;5479;52.046;6.314;2023-06-22T08:08:15;21.27;;;19.38;;
10851;SDS011;5479;52.046;6.314;2023-06-22T08:10:43;21.50;;;19.38;;
10851;SDS011;5479;52.046;6.314;2023-06-22T08:13:11;21.45;;;19.25;;
10851;SDS011;5479;52.046;6.314;2023-06-22T08:15:39;21.45;;;19.35;;
10851;SDS011;5479;52.046;6.314;2023-06-22T08:18:08;19.42;;;17.52;;
10851;SDS011;5479;52.046;6.314;2023-06-22T08:20:36;20.00;;;18.02;;
10851;SDS011;5479;52.046;6.314;2023-06-22T08:23:04;19.23;;;16.38;;
10851;SDS011;5479;52.046;6.314;2023-06-22T08:25:32;18.45;;;16.75;;
10851;SDS011;5479;52.046;6.314;2023-06-22T08:28:01;18.40;;;16.50;;
10851;SDS011;5479;52.046;6.314;2023-06-22T08:30:29;18.15;;;16.45;;
10851;SDS011;5479;52.046;6.314;2023-06-22T08:32:57;18.67;;;16.85;;
10851;SDS011;5479;52.046;6.314;2023-06-22T08:35:27;16.85;;;15.25;;
10851;SDS011;5479;52.046;6.314;2023-06-22T08:37:55;18.40;;;15.77;;
10851;SDS011;5479;52.046;6.314;2023-06-22T08:40:24;17.00;;;15.40;;
10851;SDS011;5479;52.046;6.314;2023-06-22T08:42:53;17.17;;;15.40;;
10851;SDS011;5479;52.046;6.314;2023-06-22T08:45:21;17.60;;;16.00;;
10851;SDS011;5479;52.046;6.314;2023-06-22T08:47:49;17.23;;;15.55;;
10851;SDS011;5479;52.046;6.314;2023-06-22T08:50:17;16.48;;;14.95;;
10851;SDS011;5479;52.046;6.314;2023-06-22T08:52:48;16.52;;;14.80;;
10851;SDS011;5479;52.046;6.314;2023-06-22T08:55:16;16.33;;;14.75;;
10851;SDS011;5479;52.046;6.314;2023-06-22T08:57:44;16.90;;;15.18;;
10851;SDS011;5479;52.046;6.314;2023-06-22T09:00:12;15.40;;;13.90;;
10851;SDS011;5479;52.046;6.314;2023-06-22T09:02:45;14.95;;;13.35;;
10851;SDS011;5479;52.046;6.314;2023-06-22T09:05:14;16.50;;;14.90;;
10851;SDS011;5479;52.046;6.314;2023-06-22T09:07:43;16.17;;;14.68;;
10851;SDS011;5479;52.046;6.314;2023-06-22T09:10:14;14.10;;;12.70;;
10851;SDS011;5479;52.046;6.314;2023-06-22T09:12:42;14.13;;;12.73;;
10851;SDS011;5479;52.046;6.314;2023-06-22T09:15:10;14.57;;;13.00;;
10851;SDS011;5479;52.046;6.314;2023-06-22T09:17:38;14.63;;;13.13;;
10851;SDS011;5479;52.046;6.314;2023-06-22T09:20:06;13.55;;;12.25;;
10851;SDS011;5479;52.046;6.314;2023-06-22T09:22:37;13.50;;;12.18;;
10851;SDS011;5479;52.046;6.314;2023-06-22T09:25:05;13.90;;;12.57;;
10851;SDS011;5479;52.046;6.314;2023-06-22T09:27:35;13.77;;;12.43;;
10851;SDS011;5479;52.046;6.314;2023-06-22T09:30:03;13.60;;;12.20;;
10851;SDS011;5479;52.046;6.314;2023-06-22T09:32:32;14.38;;;12.88;;
10851;SDS011;5479;52.046;6.314;2023-06-22T09:35:01;13.77;;;12.48;;
10851;SDS011;5479;52.046;6.314;2023-06-22T09:37:33;14.85;;;13.38;;
10851;SDS011;5479;52.046;6.314;2023-06-22T09:40:01;14.15;;;12.40;;
10851;SDS011;5479;52.046;6.314;2023-06-22T09:42:35;14.85;;;13.25;;
10851;SDS011;5479;52.046;6.314;2023-06-22T09:45:02;14.23;;;12.80;;
10851;SDS011;5479;52.046;6.314;2023-06-22T09:47:30;13.50;;;12.20;;
10851;SDS011;5479;52.046;6.314;2023-06-22T09:49:58;15.30;;;13.18;;
10851;SDS011;5479;52.046;6.314;2023-06-22T09:52:26;14.68;;;13.18;;
10851;SDS011;5479;52.046;6.314;2023-06-22T09:54:54;14.27;;;12.90;;
10851;SDS011;5479;52.046;6.314;2023-06-22T09:57:22;16.55;;;12.80;;
10851;SDS011;5479;52.046;6.314;2023-06-22T09:59:52;13.25;;;11.82;;
10851;SDS011;5479;52.046;6.314;2023-06-22T10:02:20;13.95;;;12.10;;
10851;SDS011;5479;52.046;6.314;2023-06-22T10:04:48;13.68;;;12.27;;
10851;SDS011;5479;52.046;6.314;2023-06-22T10:07:16;14.57;;;13.07;;
10851;SDS011;5479;52.046;6.314;2023-06-22T10:09:46;13.02;;;11.77;;
10851;SDS011;5479;52.046;6.314;2023-06-22T10:12:14;13.55;;;12.02;;
10851;SDS011;5479;52.046;6.314;2023-06-22T10:14:42;14.35;;;12.73;;
10851;SDS011;5479;52.046;6.314;2023-06-22T10:17:12;14.75;;;13.07;;
10851;SDS011;5479;52.046;6.314;2023-06-22T10:19:40;15.13;;;12.38;;
10851;SDS011;5479;52.046;6.314;2023-06-22T10:22:08;13.68;;;11.63;;
10851;SDS011;5479;52.046;6.314;2023-06-22T10:24:36;13.18;;;11.88;;
10851;SDS011;5479;52.046;6.314;2023-06-22T10:27:10;13.57;;;12.10;;
10851;SDS011;5479;52.046;6.314;2023-06-22T10:29:40;13.82;;;12.05;;
10851;SDS011;5479;52.046;6.314;2023-06-22T10:32:13;12.48;;;11.27;;
10851;SDS011;5479;52.046;6.314;2023-06-22T10:34:41;13.43;;;11.77;;
10851;SDS011;5479;52.046;6.314;2023-06-22T10:37:09;13.23;;;11.80;;
10851;SDS011;5479;52.046;6.314;2023-06-22T10:39:37;12.52;;;10.88;;
10851;SDS011;5479;52.046;6.314;2023-06-22T10:42:07;15.80;;;11.55;;
10851;SDS011;5479;52.046;6.314;2023-06-22T10:44:35;12.88;;;11.57;;
10851;SDS011;5479;52.046;6.314;2023-06-22T10:47:03;13.45;;;11.48;;
10851;SDS011;5479;52.046;6.314;2023-06-22T10:49:32;11.98;;;10.77;;
10851;SDS011;5479;52.046;6.314;2023-06-22T10:52:00;12.43;;;10.65;;
10851;SDS011;5479;52.046;6.314;2023-06-22T10:54:28;12.07;;;10.63;;
10851;SDS011;5479;52.046;6.314;2023-06-22T10:56:56;12.52;;;11.23;;
10851;SDS011;5479;52.046;6.314;2023-06-22T10:59:24;12.02;;;10.65;;
10851;SDS011;5479;52.046;6.314;2023-06-22T11:01:53;12.85;;;11.60;;
10851;SDS011;5479;52.046;6.314;2023-06-22T11:04:21;12.75;;;11.38;;
10851;SDS011;5479;52.046;6.314;2023-06-22T11:06:51;14.05;;;11.23;;
10851;SDS011;5479;52.046;6.314;2023-06-22T11:09:19;12.05;;;10.80;;
10851;SDS011;5479;52.046;6.314;2023-06-22T11:11:49;13.07;;;11.50;;
10851;SDS011;5479;52.046;6.314;2023-06-22T11:14:19;11.57;;;10.38;;
10851;SDS011;5479;52.046;6.314;2023-06-22T11:16:48;11.10;;;9.73;;
10851;SDS011;5479;52.046;6.314;2023-06-22T11:19:16;12.35;;;10.05;;
10851;SDS011;5479;52.046;6.314;2023-06-22T11:21:44;11.00;;;9.90;;
10851;SDS011;5479;52.046;6.314;2023-06-22T11:24:13;12.63;;;10.70;;
10851;SDS011;5479;52.046;6.314;2023-06-22T11:26:42;16.20;;;10.93;;
10851;SDS011;5479;52.046;6.314;2023-06-22T11:29:10;12.10;;;9.85;;
10851;SDS011;5479;52.046;6.314;2023-06-22T11:31:38;12.20;;;10.57;;
10851;SDS011;5479;52.046;6.314;2023-06-22T11:34:09;12.20;;;9.90;;
10851;SDS011;5479;52.046;6.314;2023-06-22T11:36:37;10.50;;;9.40;;
10851;SDS011;5479;52.046;6.314;2023-06-22T11:39:05;11.60;;;9.25;;
10851;SDS011;5479;52.046;6.314;2023-06-22T11:41:34;11.00;;;9.90;;
10851;SDS011;5479;52.046;6.314;2023-06-22T11:44:02;11.73;;;10.20;;
10851;SDS011;5479;52.046;6.314;2023-06-22T11:46:31;12.77;;;10.15;;
10851;SDS011;5479;52.046;6.314;2023-06-22T11:49:01;11.45;;;9.75;;
10851;SDS011;5479;52.046;6.314;2023-06-22T11:51:30;11.93;;;9.93;;
10851;SDS011;5479;52.046;6.314;2023-06-22T11:53:58;11.43;;;10.00;;
10851;SDS011;5479;52.046;6.314;2023-06-22T11:56:26;10.93;;;9.80;;
10851;SDS011;5479;52.046;6.314;2023-06-22T11:58:58;11.32;;;10.13;;
10851;SDS011;5479;52.046;6.314;2023-06-22T12:01:26;11.32;;;10.23;;
10851;SDS011;5479;52.046;6.314;2023-06-22T12:03:54;12.73;;;11.30;;
10851;SDS011;5479;52.046;6.314;2023-06-22T12:06:22;14.07;;;12.57;;
10851;SDS011;5479;52.046;6.314;2023-06-22T12:08:50;14.55;;;13.13;;
10851;SDS011;5479;52.046;6.314;2023-06-22T12:11:19;16.58;;;14.82;;
10851;SDS011;5479;52.046;6.314;2023-06-22T12:13:47;16.38;;;14.88;;
10851;SDS011;5479;52.046;6.314;2023-06-22T12:16:16;18.52;;;16.55;;
10851;SDS011;5479;52.046;6.314;2023-06-22T12:18:44;18.67;;;16.90;;
10851;SDS011;5479;52.046;6.314;2023-06-22T12:21:12;19.00;;;17.20;;
10851;SDS011;5479;52.046;6.314;2023-06-22T12:23:40;19.25;;;17.35;;
10851;SDS011;5479;52.046;6.314;2023-06-22T12:26:08;19.13;;;17.40;;
10851;SDS011;5479;52.046;6.314;2023-06-22T12:28:36;20.95;;;19.05;;
10851;SDS011;5479;52.046;6.314;2023-06-22T12:31:04;20.98;;;19.13;;
10851;SDS011;5479;52.046;6.314;2023-06-22T12:33:34;22.52;;;20.33;;
10851;SDS011;5479;52.046;6.314;2023-06-22T12:36:02;24.65;;;21.80;;
10851;SDS011;5479;52.046;6.314;2023-06-22T12:38:31;23.20;;;20.92;;
10851;SDS011;5479;52.046;6.314;2023-06-22T12:40:59;26.25;;;23.73;;
10851;SDS011;5479;52.046;6.314;2023-06-22T12:43:27;27.05;;;24.55;;
10851;SDS011;5479;52.046;6.314;2023-06-22T12:45:56;30.00;;;25.48;;
10851;SDS011;5479;52.046;6.314;2023-06-22T12:48:25;29.05;;;26.45;;
10851;SDS011;5479;52.046;6.314;2023-06-22T12:50:55;28.92;;;26.33;;
10851;SDS011;5479;52.046;6.314;2023-06-22T12:53:24;30.90;;;28.10;;
10851;SDS011;5479;52.046;6.314;2023-06-22T12:55:53;31.17;;;28.33;;
10851;SDS011;5479;52.046;6.314;2023-06-22T12:58:23;33.30;;;29.98;;
10851;SDS011;5479;52.046;6.314;2023-06-22T13:00:52;34.72;;;31.65;;
10851;SDS011;5479;52.046;6.314;2023-06-22T13:03:21;34.53;;;31.50;;
10851;SDS011;5479;52.046;6.314;2023-06-22T13:05:50;34.17;;;30.98;;
10851;SDS011;5479;52.046;6.314;2023-06-22T13:08:19;33.08;;;30.17;;
10851;SDS011;5479;52.046;6.314;2023-06-22T13:10:48;34.70;;;31.60;;
10851;SDS011;5479;52.046;6.314;2023-06-22T13:13:16;35.78;;;32.15;;
10851;SDS011;5479;52.046;6.314;2023-06-22T13:15:44;37.42;;;33.90;;
10851;SDS011;5479;52.046;6.314;2023-06-22T13:18:11;39.08;;;35.53;;
10851;SDS011;5479;52.046;6.314;2023-06-22T13:20:39;38.13;;;34.67;;
10851;SDS011;5479;52.046;6.314;2023-06-22T13:23:07;40.10;;;36.30;;
10851;SDS011;5479;52.046;6.314;2023-06-22T13:25:36;40.92;;;36.95;;
10851;SDS011;5479;52.046;6.314;2023-06-22T13:28:05;38.80;;;35.20;;
10851;SDS011;5479;52.046;6.314;2023-06-22T13:30:33;41.80;;;37.78;;
10851;SDS011;5479;52.046;6.314;2023-06-22T13:33:01;39.45;;;35.95;;
10851;SDS011;5479;52.046;6.314;2023-06-22T13:35:29;39.30;;;35.50;;
10851;SDS011;5479;52.046;6.314;2023-06-22T13:37:58;40.65;;;36.75;;
10851;SDS011;5479;52.046;6.314;2023-06-22T13:40:26;41.28;;;37.47;;
10851;SDS011;5479;52.046;6.314;2023-06-22T13:42:55;41.72;;;37.88;;
10851;SDS011;5479;52.046;6.314;2023-06-22T13:45:23;40.40;;;36.70;;
10851;SDS011;5479;52.046;6.314;2023-06-22T13:47:52;42.10;;;38.20;;
10851;SDS011;5479;52.046;6.314;2023-06-22T13:50:21;41.80;;;38.05;;
10851;SDS011;5479;52.046;6.314;2023-06-22T13:52:49;42.33;;;38.30;;
10851;SDS011;5479;52.046;6.314;2023-06-22T13:55:17;41.80;;;37.95;;
10851;SDS011;5479;52.046;6.314;2023-06-22T13:57:47;41.42;;;37.63;;
10851;SDS011;5479;52.046;6.314;2023-06-22T14:00:17;39.55;;;35.90;;
10851;SDS011;5479;52.046;6.314;2023-06-22T14:02:45;38.30;;;34.90;;
10851;SDS011;5479;52.046;6.314;2023-06-22T14:05:13;37.70;;;34.17;;
10851;SDS011;5479;52.046;6.314;2023-06-22T14:07:41;36.03;;;32.63;;
10851;SDS011;5479;52.046;6.314;2023-06-22T14:10:10;38.17;;;34.67;;
10851;SDS011;5479;52.046;6.314;2023-06-22T14:12:38;35.40;;;32.05;;
10851;SDS011;5479;52.046;6.314;2023-06-22T14:15:06;35.53;;;32.33;;
10851;SDS011;5479;52.046;6.314;2023-06-22T14:17:36;37.15;;;33.83;;
10851;SDS011;5479;52.046;6.314;2023-06-22T14:20:07;35.33;;;31.92;;
10851;SDS011;5479;52.046;6.314;2023-06-22T14:22:36;37.63;;;34.25;;
10851;SDS011;5479;52.046;6.314;2023-06-22T14:25:05;36.83;;;33.53;;
10851;SDS011;5479;52.046;6.314;2023-06-22T14:27:33;35.88;;;32.58;;
10851;SDS011;5479;52.046;6.314;2023-06-22T14:30:01;35.78;;;32.47;;
10851;SDS011;5479;52.046;6.314;2023-06-22T14:32:30;36.13;;;32.90;;
10851;SDS011;5479;52.046;6.314;2023-06-22T14:34:59;35.08;;;31.77;;
10851;SDS011;5479;52.046;6.314;2023-06-22T14:37:27;38.97;;;35.30;;
10851;SDS011;5479;52.046;6.314;2023-06-22T14:39:57;40.33;;;36.45;;
10851;SDS011;5479;52.046;6.314;2023-06-22T14:42:26;41.17;;;37.30;;
10851;SDS011;5479;52.046;6.314;2023-06-22T14:44:57;40.25;;;36.60;;